createdAt,value
2018-04-09T00:00:26.382Z,64.56
2018-04-09T00:02:52.117Z,64.68
2018-04-09T00:05:17.848Z,63.76
2018-04-09T00:07:43.614Z,64.45
2018-04-09T00:10:09.341Z,64.43
2018-04-09T00:12:35.077Z,64.96
2018-04-09T00:15:00.818Z,64.50
2018-04-09T00:17:26.558Z,65.21
2018-04-09T00:19:52.300Z,65.32
2018-04-09T00:22:18.043Z,65.21
2018-04-09T00:24:43.782Z,65.45
2018-04-09T00:27:09.519Z,65.56
2018-04-09T00:29:35.237Z,65.64
2018-04-09T00:32:00.986Z,65.57
2018-04-09T00:34:26.709Z,66.01
2018-04-09T00:36:52.454Z,65.80
2018-04-09T00:39:18.194Z,66.28
2018-04-09T00:41:43.917Z,66.51
2018-04-09T00:44:09.660Z,66.35
2018-04-09T00:46:35.398Z,66.01
2018-04-09T00:49:01.130Z,66.06
2018-04-09T00:51:26.866Z,65.85
2018-04-09T00:53:58.625Z,65.67
2018-04-09T00:56:24.380Z,65.79
2018-04-09T00:58:50.130Z,66.26
2018-04-09T01:01:15.866Z,66.79
2018-04-09T01:03:41.626Z,65.99
2018-04-09T01:06:07.360Z,66.66
2018-04-09T01:08:33.109Z,66.38
2018-04-09T01:10:58.834Z,66.53
2018-04-09T01:13:24.580Z,66.01
2018-04-09T01:15:50.317Z,65.69
2018-04-09T01:18:16.059Z,66.58
2018-04-09T01:20:41.793Z,66.23
2018-04-09T01:23:07.541Z,65.97
2018-04-09T01:25:33.280Z,65.96
2018-04-09T01:27:59.042Z,66.21
2018-04-09T01:30:24.791Z,66.10
2018-04-09T01:32:50.522Z,66.26
2018-04-09T01:35:16.270Z,65.95
2018-04-09T01:37:41.986Z,65.59
2018-04-09T01:40:07.754Z,65.84
2018-04-09T01:42:33.498Z,65.48
2018-04-09T01:44:59.243Z,65.29
2018-04-09T01:47:24.977Z,65.40
2018-04-09T01:49:50.719Z,66.57
2018-04-09T01:52:16.449Z,65.88
2018-04-09T01:54:42.195Z,66.62
2018-04-09T01:57:07.922Z,68.17
2018-04-09T01:59:33.682Z,67.42
2018-04-09T02:01:59.419Z,67.12
2018-04-09T02:04:25.154Z,67.10
2018-04-09T02:06:50.874Z,67.41
2018-04-09T02:09:16.621Z,67.11
2018-04-09T02:11:42.345Z,68.08
2018-04-09T02:14:08.080Z,68.55
2018-04-09T02:16:33.809Z,69.19
2018-04-09T02:18:59.538Z,68.95
2018-04-09T02:21:25.283Z,69.06
2018-04-09T02:23:51.021Z,69.30
2018-04-09T02:26:16.761Z,69.80
2018-04-09T02:28:42.481Z,69.77
2018-04-09T02:31:08.218Z,70.34
2018-04-09T02:33:33.947Z,70.63
2018-04-09T02:35:59.689Z,70.20
2018-04-09T02:38:25.410Z,70.81
2018-04-09T02:40:51.145Z,71.21
2018-04-09T02:43:16.895Z,71.71
2018-04-09T02:45:42.628Z,71.92
2018-04-09T02:48:08.353Z,71.86
2018-04-09T02:50:34.087Z,71.47
2018-04-09T02:52:59.819Z,71.41
2018-04-09T02:55:25.557Z,71.73
2018-04-09T02:57:51.301Z,71.64
2018-04-09T03:00:17.046Z,71.65
2018-04-09T03:02:42.802Z,71.73
2018-04-09T03:05:08.564Z,71.76
2018-04-09T03:07:34.333Z,72.20
2018-04-09T03:10:00.053Z,72.76
2018-04-09T03:12:25.796Z,72.63
2018-04-09T03:14:51.536Z,72.65
2018-04-09T03:17:17.267Z,72.63
2018-04-09T03:19:43.001Z,71.66
2018-04-09T03:22:08.741Z,71.49
2018-04-09T03:24:34.481Z,71.27
2018-04-09T03:27:00.225Z,70.79
2018-04-09T03:29:25.967Z,71.07
2018-04-09T03:31:51.706Z,70.88
2018-04-09T03:34:17.425Z,71.22
2018-04-09T03:36:43.168Z,71.40
2018-04-09T03:39:08.909Z,71.44
2018-04-09T03:41:34.653Z,71.99
2018-04-09T03:44:00.386Z,72.96
2018-04-09T03:46:26.106Z,72.52
2018-04-09T03:48:51.844Z,72.36
2018-04-09T03:51:17.574Z,72.43
2018-04-09T03:53:43.331Z,72.72
2018-04-09T03:56:09.065Z,72.80
2018-04-09T03:58:38.689Z,72.83
2018-04-09T04:01:04.437Z,73.39
2018-04-09T04:03:30.187Z,74.70
2018-04-09T04:05:55.921Z,75.62
2018-04-09T04:08:21.655Z,75.97
2018-04-09T04:10:47.394Z,76.12
2018-04-09T04:13:13.130Z,76.42
2018-04-09T04:15:51.298Z,76.24
2018-04-09T04:18:29.494Z,76.22
2018-04-09T04:21:07.635Z,76.94
2018-04-09T04:23:33.377Z,77.66
2018-04-09T04:25:59.116Z,76.63
2018-04-09T04:28:24.896Z,77.56
2018-04-09T04:30:50.609Z,78.53
2018-04-09T04:33:16.353Z,79.06
2018-04-09T04:35:42.114Z,78.19
2018-04-09T04:38:07.848Z,77.59
2018-04-09T04:40:33.590Z,77.42
2018-04-09T04:42:59.317Z,78.14
2018-04-09T04:45:25.105Z,78.38
2018-04-09T04:47:50.797Z,78.02
2018-04-09T04:50:16.554Z,77.56
2018-04-09T04:52:42.332Z,77.24
2018-04-09T04:55:08.096Z,77.62
2018-04-09T04:57:33.839Z,77.43
2018-04-09T04:59:59.577Z,77.40
2018-04-09T05:02:25.310Z,77.48
2018-04-09T05:04:51.058Z,76.14
2018-04-09T05:07:16.797Z,77.49
2018-04-09T05:09:42.538Z,77.38
2018-04-09T05:12:08.294Z,76.83
2018-04-09T05:14:34.034Z,76.37
2018-04-09T05:16:59.764Z,77.10
2018-04-09T05:19:25.516Z,76.11
2018-04-09T05:21:51.261Z,76.15
2018-04-09T05:24:17.002Z,75.67
2018-04-09T05:26:42.735Z,75.49
2018-04-09T05:29:08.481Z,75.68
2018-04-09T05:31:34.220Z,75.38
2018-04-09T05:33:59.961Z,74.60
2018-04-09T05:36:25.706Z,74.15
2018-04-09T05:38:51.465Z,74.41
2018-04-09T05:41:17.193Z,74.46
2018-04-09T05:43:42.918Z,74.17
2018-04-09T05:46:08.657Z,72.98
2018-04-09T05:48:34.406Z,73.69
2018-04-09T05:51:00.154Z,73.47
2018-04-09T05:53:25.897Z,72.54
2018-04-09T05:55:51.650Z,71.83
2018-04-09T05:58:17.389Z,72.34
2018-04-09T06:00:43.142Z,71.76
2018-04-09T06:03:08.873Z,71.48
2018-04-09T06:05:34.636Z,70.05
2018-04-09T06:08:00.392Z,70.44
2018-04-09T06:10:26.137Z,71.27
2018-04-09T06:12:52.777Z,71.92
2018-04-09T06:15:18.525Z,69.80
2018-04-09T06:17:44.286Z,70.54
2018-04-09T06:20:10.045Z,68.66
2018-04-09T06:22:35.809Z,68.68
2018-04-09T06:25:01.563Z,69.79
2018-04-09T06:27:27.309Z,69.73
2018-04-09T06:29:53.066Z,68.46
2018-04-09T06:32:18.824Z,68.28
2018-04-09T06:34:44.578Z,67.29
2018-04-09T06:37:10.326Z,67.79
2018-04-09T06:39:36.107Z,66.88
2018-04-09T06:42:01.857Z,66.84
2018-04-09T06:44:27.625Z,66.37
2018-04-09T06:46:53.377Z,65.70
2018-04-09T06:49:19.118Z,67.07
2018-04-09T06:51:44.866Z,66.11
2018-04-09T06:54:10.639Z,68.42
2018-04-09T06:56:36.408Z,65.92
2018-04-09T06:59:02.169Z,66.45
2018-04-09T07:01:27.958Z,66.01
2018-04-09T07:03:53.710Z,65.44
2018-04-09T07:06:19.467Z,65.28
2018-04-09T07:08:45.201Z,64.19
2018-04-09T07:11:10.965Z,65.74
2018-04-09T07:13:36.701Z,65.23
2018-04-09T07:16:02.461Z,64.42
2018-04-09T07:18:28.201Z,65.04
2018-04-09T07:20:53.962Z,64.77
2018-04-09T07:23:19.703Z,64.36
2018-04-09T07:25:45.450Z,64.89
2018-04-09T07:28:11.189Z,64.96
2018-04-09T07:30:36.929Z,64.46
2018-04-09T07:33:02.686Z,64.33
2018-04-09T07:35:28.438Z,64.93
2018-04-09T07:37:54.175Z,64.75
2018-04-09T07:40:19.930Z,65.00
2018-04-09T07:42:45.664Z,64.18
2018-04-09T07:45:11.414Z,64.53
2018-04-09T07:47:37.161Z,64.24
2018-04-09T07:50:02.898Z,63.62
2018-04-09T07:52:28.659Z,63.35
2018-04-09T07:54:54.412Z,63.08
2018-04-09T07:57:20.161Z,61.24
2018-04-09T07:59:45.902Z,62.49
2018-04-09T08:02:11.645Z,59.75
2018-04-09T08:04:37.378Z,59.73
2018-04-09T08:07:03.122Z,59.23
2018-04-09T08:09:28.871Z,58.63
2018-04-09T08:11:54.624Z,58.75
2018-04-09T08:14:20.359Z,59.39
2018-04-09T08:16:46.109Z,58.99
2018-04-09T08:19:11.852Z,57.13
2018-04-09T08:21:37.601Z,57.94
2018-04-09T08:24:03.328Z,57.00
2018-04-09T08:26:29.089Z,58.04
2018-04-09T08:28:54.846Z,58.08
2018-04-09T08:31:20.598Z,56.97
2018-04-09T08:33:46.349Z,56.33
2018-04-09T08:36:12.105Z,56.92
2018-04-09T08:38:37.848Z,55.57
2018-04-09T08:41:03.589Z,57.57
2018-04-09T08:43:29.334Z,55.31
2018-04-09T08:45:55.085Z,54.92
2018-04-09T08:48:20.916Z,56.13
2018-04-09T08:50:46.673Z,53.96
2018-04-09T08:55:45.005Z,55.88
2018-04-09T08:58:10.764Z,54.83
2018-04-09T09:00:36.509Z,54.01
2018-04-09T09:03:02.262Z,54.66
2018-04-09T09:05:27.994Z,55.40
2018-04-09T09:07:53.755Z,53.92
2018-04-09T09:10:19.492Z,55.39
2018-04-09T09:12:45.234Z,55.54
2018-04-09T09:15:10.991Z,55.04
2018-04-09T09:17:36.734Z,56.31
2018-04-09T09:20:02.471Z,54.47
2018-04-09T09:22:28.230Z,55.27
2018-04-09T09:24:53.962Z,55.81
2018-04-09T09:27:19.704Z,54.48
2018-04-09T09:29:45.438Z,54.12
2018-04-09T09:32:11.193Z,55.27
2018-04-09T09:34:36.935Z,54.07
2018-04-09T09:37:02.704Z,55.02
2018-04-09T09:39:28.458Z,54.39
2018-04-09T09:41:54.209Z,54.20
2018-04-09T09:44:19.957Z,54.13
2018-04-09T09:46:45.709Z,54.90
2018-04-09T09:49:11.504Z,55.26
2018-04-09T09:51:37.201Z,54.99
2018-04-09T09:54:02.959Z,54.58
2018-04-09T09:56:28.700Z,54.25
2018-04-09T09:58:54.446Z,54.80
2018-04-09T10:01:20.201Z,53.18
2018-04-09T10:03:45.946Z,52.61
2018-04-09T10:06:11.688Z,53.26
2018-04-09T10:08:37.437Z,52.58
2018-04-09T10:11:03.971Z,53.11
2018-04-09T10:13:29.730Z,54.21
2018-04-09T10:15:55.469Z,54.09
2018-04-09T10:18:21.215Z,53.80
2018-04-09T10:20:46.984Z,52.53
2018-04-09T10:23:12.727Z,52.59
2018-04-09T10:25:38.478Z,51.36
2018-04-09T10:28:04.223Z,51.76
2018-04-09T10:30:29.977Z,51.52
2018-04-09T10:32:55.736Z,49.98
2018-04-09T10:35:21.479Z,50.84
2018-04-09T10:37:47.239Z,51.70
2018-04-09T10:40:12.969Z,51.72
2018-04-09T10:42:38.722Z,50.99
2018-04-09T10:45:04.473Z,50.74
2018-04-09T10:47:30.213Z,51.23
2018-04-09T10:49:55.963Z,51.57
2018-04-09T10:52:21.714Z,51.55
2018-04-09T10:54:47.458Z,51.78
2018-04-09T10:57:13.205Z,51.79
2018-04-09T10:59:38.954Z,52.96
2018-04-09T11:02:04.711Z,52.30
2018-04-09T11:04:30.445Z,52.62
2018-04-09T11:06:56.178Z,52.72
2018-04-09T11:09:21.929Z,51.57
2018-04-09T11:11:47.685Z,53.03
2018-04-09T11:14:13.436Z,51.90
2018-04-09T11:16:39.186Z,52.03
2018-04-09T11:19:04.942Z,50.68
2018-04-09T11:21:30.668Z,50.48
2018-04-09T11:23:56.418Z,51.46
2018-04-09T11:26:22.174Z,52.04
2018-04-09T11:28:47.913Z,51.16
2018-04-09T11:31:13.678Z,49.87
2018-04-09T11:33:39.433Z,50.23
2018-04-09T11:36:05.173Z,51.20
2018-04-09T11:38:30.933Z,50.46
2018-04-09T11:40:56.672Z,50.88
2018-04-09T11:43:22.478Z,52.71
2018-04-09T11:45:48.207Z,51.46
2018-04-09T11:48:13.950Z,51.32
2018-04-09T11:50:39.724Z,51.81
2018-04-09T11:53:05.497Z,53.33
2018-04-09T11:55:31.265Z,53.21
2018-04-09T12:00:22.320Z,51.46
2018-04-09T12:02:48.072Z,52.01
2018-04-09T12:05:13.816Z,51.72
2018-04-09T12:07:39.587Z,50.59
2018-04-09T12:10:05.332Z,52.85
2018-04-09T12:12:31.089Z,53.00
2018-04-09T12:14:56.830Z,53.34
2018-04-09T12:17:22.576Z,53.25
2018-04-09T12:19:48.324Z,53.81
2018-04-09T12:22:14.072Z,55.17
2018-04-09T12:24:39.825Z,53.72
2018-04-09T12:27:05.574Z,54.75
2018-04-09T12:29:31.336Z,54.24
2018-04-09T12:31:57.071Z,53.84
2018-04-09T12:34:22.829Z,52.84
2018-04-09T12:36:48.575Z,54.12
2018-04-09T12:39:14.329Z,53.85
2018-04-09T12:41:40.079Z,53.48
2018-04-09T12:44:05.833Z,53.57
2018-04-09T12:46:31.567Z,53.74
2018-04-09T12:48:57.308Z,54.28
2018-04-09T12:51:23.048Z,54.53
2018-04-09T12:53:48.809Z,54.88
2018-04-09T12:56:14.543Z,55.71
2018-04-09T12:58:40.287Z,54.65
2018-04-09T13:03:31.375Z,55.39
2018-04-09T13:05:57.120Z,55.68
2018-04-09T13:08:22.877Z,56.23
2018-04-09T13:10:48.635Z,55.08
2018-04-09T13:13:14.380Z,53.42
2018-04-09T13:15:40.147Z,54.30
2018-04-09T13:18:05.912Z,53.10
2018-04-09T13:20:31.653Z,54.70
2018-04-09T13:22:57.417Z,55.38
2018-04-09T13:25:23.176Z,55.24
2018-04-09T13:27:48.942Z,53.82
2018-04-09T13:30:14.686Z,53.28
2018-04-09T13:32:40.419Z,52.61
2018-04-09T13:35:06.184Z,53.99
2018-04-09T13:37:31.920Z,56.47
2018-04-09T13:39:57.681Z,55.37
2018-04-09T13:42:23.436Z,54.91
2018-04-09T13:44:49.187Z,55.07
2018-04-09T13:47:14.920Z,53.68
2018-04-09T13:49:40.662Z,52.87
2018-04-09T13:52:06.388Z,54.28
2018-04-09T13:54:32.147Z,55.79
2018-04-09T13:56:57.901Z,55.66
2018-04-09T13:59:23.638Z,55.10
2018-04-09T14:01:49.384Z,55.57
2018-04-09T14:04:15.157Z,55.92
2018-04-09T14:06:40.911Z,55.27
2018-04-09T14:09:06.665Z,55.40
2018-04-09T14:11:32.419Z,55.75
2018-04-09T14:13:58.168Z,55.99
2018-04-09T14:16:23.918Z,56.77
2018-04-09T14:18:49.668Z,56.68
2018-04-09T14:21:15.424Z,58.29
2018-04-09T14:23:41.178Z,58.18
2018-04-09T14:26:06.956Z,58.33
2018-04-09T14:28:32.692Z,59.06
2018-04-09T14:30:58.452Z,59.44
2018-04-09T14:33:24.187Z,59.87
2018-04-09T14:35:49.952Z,59.00
2018-04-09T14:38:15.716Z,58.86
2018-04-09T14:40:41.461Z,59.62
2018-04-09T14:43:07.207Z,60.04
2018-04-09T14:45:32.947Z,59.98
2018-04-09T14:47:58.699Z,61.17
2018-04-09T14:50:24.440Z,61.06
2018-04-09T14:52:50.207Z,61.37
2018-04-09T14:55:15.948Z,61.89
2018-04-09T14:57:41.680Z,62.03
2018-04-09T15:00:07.448Z,62.26
2018-04-09T15:02:33.185Z,62.59
2018-04-09T15:04:58.936Z,62.52
2018-04-09T15:07:24.676Z,62.70
2018-04-09T15:09:50.438Z,62.82
2018-04-09T15:12:16.176Z,63.39
2018-04-09T15:14:41.920Z,63.10
2018-04-09T15:17:07.679Z,62.84
2018-04-09T15:19:33.477Z,62.87
2018-04-09T15:21:59.228Z,63.64
2018-04-09T15:24:24.968Z,64.11
2018-04-09T15:26:50.713Z,63.94
2018-04-09T15:29:16.471Z,64.29
2018-04-09T15:31:42.213Z,64.06
2018-04-09T15:34:07.947Z,63.95
2018-04-09T15:36:33.684Z,64.34
2018-04-09T15:38:59.422Z,64.04
2018-04-09T15:41:25.176Z,64.51
2018-04-09T15:43:50.917Z,64.86
2018-04-09T15:46:16.661Z,64.77
2018-04-09T15:48:42.397Z,64.84
2018-04-09T15:51:08.147Z,64.74
2018-04-09T15:53:33.883Z,65.21
2018-04-09T15:55:59.627Z,65.27
2018-04-09T15:58:25.370Z,64.97
2018-04-09T16:00:51.127Z,64.52
2018-04-09T16:03:16.907Z,64.81
2018-04-09T16:05:42.651Z,64.78
2018-04-09T16:08:08.392Z,65.31
2018-04-09T16:10:34.139Z,65.68
2018-04-09T16:12:59.872Z,65.80
2018-04-09T16:15:25.628Z,66.18
2018-04-09T16:18:03.914Z,66.35
2018-04-09T16:20:29.668Z,66.49
2018-04-09T16:22:55.417Z,66.68
2018-04-09T16:25:21.167Z,67.09
2018-04-09T16:27:46.895Z,67.41
2018-04-09T16:30:12.644Z,67.53
2018-04-09T16:32:38.367Z,68.03
2018-04-09T16:35:04.111Z,67.94
2018-04-09T16:37:29.840Z,67.87
2018-04-09T16:39:55.607Z,68.19
2018-04-09T16:42:21.351Z,67.91
2018-04-09T16:44:47.086Z,67.71
2018-04-09T16:47:12.836Z,68.00
2018-04-09T16:49:38.611Z,68.24
2018-04-09T16:52:04.356Z,68.30
2018-04-09T16:54:30.108Z,68.53
2018-04-09T16:56:55.847Z,68.23
2018-04-09T16:59:21.589Z,67.95
2018-04-09T17:01:47.341Z,68.02
2018-04-09T17:04:13.071Z,67.79
2018-04-09T17:06:38.828Z,67.79
2018-04-09T17:09:04.581Z,67.94
2018-04-09T17:11:30.355Z,67.98
2018-04-09T17:13:56.095Z,68.45
2018-04-09T17:16:21.835Z,68.28
2018-04-09T17:18:47.578Z,68.20
2018-04-09T17:21:13.323Z,68.13
2018-04-09T17:23:39.076Z,68.34
2018-04-09T17:26:04.812Z,68.43
2018-04-09T17:28:30.551Z,68.72
2018-04-09T17:30:56.307Z,68.87
2018-04-09T17:33:22.058Z,68.93
2018-04-09T17:35:47.818Z,69.11
2018-04-09T17:38:13.563Z,69.43
2018-04-09T17:40:39.311Z,69.28
2018-04-09T17:43:05.041Z,69.26
2018-04-09T17:45:30.791Z,69.62
2018-04-09T17:47:56.522Z,69.52
2018-04-09T17:50:22.267Z,69.83
2018-04-09T17:52:48.000Z,70.07
2018-04-09T17:55:13.751Z,70.20
2018-04-09T17:57:39.507Z,70.00
2018-04-09T18:00:05.257Z,70.12
2018-04-09T18:02:31.059Z,70.51
2018-04-09T18:04:56.809Z,70.39
2018-04-09T18:07:22.556Z,70.75
2018-04-09T18:09:48.294Z,70.92
2018-04-09T18:12:14.027Z,71.35
2018-04-09T18:14:39.763Z,71.66
2018-04-09T18:17:05.527Z,71.52
2018-04-09T18:19:31.259Z,71.66
2018-04-09T18:21:57.002Z,71.85
2018-04-09T18:24:22.724Z,71.81
2018-04-09T18:26:48.480Z,72.03
2018-04-09T18:29:14.222Z,72.14
2018-04-09T18:31:40.008Z,72.03
2018-04-09T18:34:05.754Z,72.09
2018-04-09T18:36:31.485Z,72.33
2018-04-09T18:38:57.211Z,72.43
2018-04-09T18:41:22.955Z,72.74
2018-04-09T18:43:48.688Z,72.99
2018-04-09T18:46:14.428Z,73.04
2018-04-09T18:48:40.167Z,73.50
2018-04-09T18:51:05.917Z,73.95
2018-04-09T18:53:31.659Z,74.10
2018-04-09T18:55:57.422Z,74.40
2018-04-09T18:58:23.172Z,74.98
2018-04-09T19:00:48.916Z,75.16
2018-04-09T19:03:14.647Z,75.35
2018-04-09T19:05:40.379Z,75.49
2018-04-09T19:08:06.136Z,75.85
2018-04-09T19:10:31.879Z,76.04
2018-04-09T19:12:57.611Z,76.25
2018-04-09T19:15:23.340Z,76.41
2018-04-09T19:17:49.079Z,76.45
2018-04-09T19:20:14.807Z,76.86
2018-04-09T19:22:40.560Z,76.98
2018-04-09T19:25:06.296Z,77.28
2018-04-09T19:27:32.031Z,77.49
2018-04-09T19:29:57.768Z,77.72
2018-04-09T19:32:23.516Z,77.94
2018-04-09T19:34:55.424Z,77.99
2018-04-09T19:37:27.171Z,78.11
2018-04-09T19:39:59.035Z,78.46
2018-04-09T19:42:24.792Z,78.66
2018-04-09T19:44:50.526Z,78.63
2018-04-09T19:47:16.492Z,78.66
2018-04-09T19:49:42.240Z,79.44
2018-04-09T19:52:07.979Z,79.17
2018-04-09T19:54:33.727Z,79.86
2018-04-09T19:56:59.477Z,79.85
2018-04-09T19:59:25.227Z,80.27
2018-04-09T20:01:50.975Z,80.33
2018-04-09T20:04:16.727Z,80.27
2018-04-09T20:06:42.455Z,80.75
2018-04-09T20:09:08.217Z,81.01
2018-04-09T20:11:33.950Z,81.02
2018-04-09T20:13:59.696Z,81.18
2018-04-09T20:16:25.432Z,81.50
2018-04-09T20:18:51.183Z,81.59
2018-04-09T20:21:16.912Z,81.90
2018-04-09T20:23:42.685Z,82.08
2018-04-09T20:26:08.430Z,82.30
2018-04-09T20:28:34.175Z,82.44
2018-04-09T20:30:59.916Z,82.73
2018-04-09T20:33:25.654Z,82.57
2018-04-09T20:35:51.392Z,82.91
2018-04-09T20:38:17.146Z,82.70
2018-04-09T20:40:42.863Z,82.93
2018-04-09T20:43:08.616Z,83.01
2018-04-09T20:45:34.376Z,83.11
2018-04-09T20:48:00.107Z,83.21
2018-04-09T20:50:25.848Z,83.43
2018-04-09T20:52:51.648Z,83.45
2018-04-09T20:55:17.395Z,83.51
2018-04-09T20:57:44.215Z,83.57
2018-04-09T21:00:10.124Z,83.62
2018-04-09T21:02:35.847Z,83.64
2018-04-09T21:05:01.583Z,83.62
2018-04-09T21:07:27.307Z,83.71
2018-04-09T21:09:53.047Z,83.60
2018-04-09T21:12:18.776Z,83.80
2018-04-09T21:14:44.505Z,84.20
2018-04-09T21:17:10.236Z,84.49
2018-04-09T21:19:35.977Z,84.38
2018-04-09T21:22:01.701Z,84.49
2018-04-09T21:24:27.719Z,84.54
2018-04-09T21:26:53.472Z,84.65
2018-04-09T21:29:19.216Z,84.55
2018-04-09T21:31:45.048Z,84.74
2018-04-09T21:34:12.024Z,84.86
2018-04-09T21:36:37.763Z,84.98
2018-04-09T21:39:07.674Z,85.01
2018-04-09T21:41:33.440Z,85.14
2018-04-09T21:43:59.160Z,85.08
2018-04-09T21:46:25.220Z,85.13
2018-04-09T21:48:51.031Z,85.38
2018-04-09T21:51:16.909Z,85.26
2018-04-09T21:53:42.902Z,85.30
2018-04-09T21:56:08.906Z,85.43
2018-04-09T21:58:34.648Z,85.50
2018-04-09T22:01:00.375Z,85.64
2018-04-09T22:03:26.100Z,85.87
2018-04-09T22:05:51.835Z,85.90
2018-04-09T22:08:17.561Z,86.02
2018-04-09T22:10:43.292Z,86.11
2018-04-09T22:13:09.059Z,86.15
2018-04-09T22:15:34.803Z,86.21
2018-04-09T22:18:00.535Z,86.38
2018-04-09T22:20:26.299Z,86.61
2018-04-09T22:22:52.036Z,86.78
2018-04-09T22:25:18.618Z,86.86
2018-04-09T22:27:44.932Z,86.97
2018-04-09T22:30:10.695Z,87.01
2018-04-09T22:32:36.434Z,87.15
2018-04-09T22:35:02.186Z,87.06
2018-04-09T22:37:27.895Z,87.32
2018-04-09T22:39:53.612Z,87.30
2018-04-09T22:42:19.343Z,87.38
2018-04-09T22:44:45.055Z,87.51
2018-04-09T22:47:10.808Z,87.63
2018-04-09T22:49:36.530Z,87.72
2018-04-09T22:52:02.277Z,87.86
2018-04-09T22:54:28.019Z,87.88
2018-04-09T22:56:53.775Z,87.93
2018-04-09T22:59:19.507Z,88.20
2018-04-09T23:01:45.247Z,88.18
2018-04-09T23:04:10.988Z,88.31
2018-04-09T23:06:36.716Z,88.50
2018-04-09T23:09:02.448Z,88.62
2018-04-09T23:11:28.188Z,88.55
2018-04-09T23:13:53.918Z,88.83
2018-04-09T23:16:19.634Z,88.97
2018-04-09T23:18:45.388Z,89.10
2018-04-09T23:21:11.119Z,89.31
2018-04-09T23:23:36.854Z,89.33
2018-04-09T23:26:02.596Z,89.32
2018-04-09T23:28:28.342Z,89.45
2018-04-09T23:30:54.084Z,89.41
2018-04-09T23:33:19.851Z,89.35
2018-04-09T23:35:45.580Z,89.34
2018-04-09T23:38:11.334Z,89.58
2018-04-09T23:40:37.059Z,89.68
2018-04-09T23:43:02.815Z,89.67
2018-04-09T23:45:28.547Z,89.68
2018-04-09T23:47:54.294Z,89.76
2018-04-09T23:50:20.028Z,89.79
2018-04-09T23:52:45.771Z,89.91
2018-04-09T23:55:11.513Z,89.86
2018-04-09T23:57:37.269Z,89.95
